Time;durP1;ratioP1;P1;durP2;ratioP2;P2;SDS_P1;SDS_P2;PMS_P1;PMS_P2;Temp;Humidity;BMP_temperature;BMP_pressure;BME280_temperature;BME280_humidity;BME280_pressure;Samples;Min_cycle;Max_cycle;Signal;HPM_P1;HPM_P2
2023/05/14 00:00:05;;;;;;;24.38;22.48;;;7.90;99.90;;;;;;4984398;28;20128;-78
2023/05/14 00:02:32;;;;;;;24.67;22.73;;;7.90;99.90;;;;;;5019414;28;20046;-78
2023/05/14 00:04:58;;;;;;;25.40;23.20;;;7.80;99.90;;;;;;4988302;28;20041;-79
2023/05/14 00:07:29;;;;;;;25.30;23.15;;;7.80;99.90;;;;;;4979911;28;20078;-79
2023/05/14 00:09:57;;;;;;;24.65;22.65;;;7.80;99.90;;;;;;4978548;28;20045;-78
2023/05/14 00:12:25;;;;;;;25.27;23.10;;;7.80;99.90;;;;;;4996902;28;20038;-78
2023/05/14 00:14:52;;;;;;;26.10;23.95;;;7.80;99.90;;;;;;4996005;28;20552;-78
2023/05/14 00:17:19;;;;;;;23.98;22.10;;;7.70;99.90;;;;;;5007903;28;20598;-80
2023/05/14 00:19:46;;;;;;;25.13;23.08;;;7.60;99.90;;;;;;4992752;28;20041;-79
2023/05/14 00:22:13;;;;;;;27.00;24.83;;;7.60;99.90;;;;;;5007754;28;20133;-76
2023/05/14 00:24:40;;;;;;;26.65;24.48;;;7.60;99.90;;;;;;4996727;28;20050;-77
2023/05/14 00:27:06;;;;;;;26.45;24.20;;;7.60;99.90;;;;;;4996116;28;20046;-77
2023/05/14 00:29:33;;;;;;;26.70;24.60;;;7.80;99.90;;;;;;4998759;28;20044;-78
2023/05/14 00:32:01;;;;;;;26.38;24.25;;;7.70;99.90;;;;;;4985127;28;20049;-76
2023/05/14 00:34:28;;;;;;;26.63;24.48;;;7.80;99.90;;;;;;4995029;28;20141;-77
2023/05/14 00:36:55;;;;;;;26.60;24.40;;;7.80;99.90;;;;;;4983809;28;20095;-76
2023/05/14 00:39:22;;;;;;;26.73;24.35;;;7.80;99.90;;;;;;4991943;28;20053;-76
2023/05/14 00:41:49;;;;;;;26.45;24.25;;;7.70;99.90;;;;;;5016683;28;20045;-76
2023/05/14 00:44:15;;;;;;;25.30;23.20;;;7.70;99.90;;;;;;4996215;28;20045;-77
2023/05/14 00:46:42;;;;;;;26.38;24.17;;;7.70;99.90;;;;;;5017944;28;20735;-76
2023/05/14 00:49:10;;;;;;;27.13;24.73;;;7.60;99.90;;;;;;4982559;28;20092;-76
2023/05/14 00:51:37;;;;;;;26.92;24.75;;;7.50;99.90;;;;;;4995736;28;20491;-76
2023/05/14 00:54:05;;;;;;;28.73;26.20;;;7.50;99.90;;;;;;5018312;28;20056;-77
2023/05/14 00:56:32;;;;;;;28.25;25.60;;;7.70;99.90;;;;;;4999308;28;20048;-77
2023/05/14 00:59:00;;;;;;;29.70;27.00;;;7.60;99.90;;;;;;4998060;28;20617;-77
2023/05/14 01:01:27;;;;;;;27.27;24.70;;;7.60;99.90;;;;;;5000417;28;20646;-76
2023/05/14 01:03:56;;;;;;;26.65;24.30;;;7.60;99.90;;;;;;4998881;28;20114;-76
2023/05/14 01:06:40;;;;;;;28.20;25.90;;;7.60;99.90;;;;;;4993497;28;20292;-75
2023/05/14 01:09:22;;;;;;;28.58;25.88;;;7.60;99.90;;;;;;4998052;28;20048;-76
2023/05/14 01:12:02;;;;;;;27.85;25.50;;;7.60;99.90;;;;;;5001905;28;20534;-77
2023/05/14 01:14:57;;;;;;;27.40;25.10;;;7.40;99.90;;;;;;5002115;28;20495;-78
2023/05/14 01:17:26;;;;;;;;;;;7.40;99.90;;;;;;4970819;28;20598;-77
2023/05/14 01:19:55;;;;;;;27.65;25.27;;;7.50;99.90;;;;;;5000784;28;20626;-78
2023/05/14 01:22:22;;;;;;;29.48;26.50;;;7.40;99.90;;;;;;5003385;28;20713;-78
2023/05/14 01:24:48;;;;;;;26.30;24.25;;;7.40;99.90;;;;;;4987040;28;20048;-77
2023/05/14 01:27:37;;;;;;;29.13;26.73;;;7.20;99.90;;;;;;4992353;28;20041;-78
2023/05/14 01:30:35;;;;;;;27.85;25.55;;;7.20;99.90;;;;;;5000230;28;20080;-78
2023/05/14 01:33:15;;;;;;;29.02;26.27;;;7.20;99.90;;;;;;4982774;28;20149;-78
2023/05/14 01:35:43;;;;;;;26.90;24.50;;;7.30;99.90;;;;;;5012677;28;20448;-78
2023/05/14 01:38:12;;;;;;;27.52;25.00;;;7.30;99.90;;;;;;5016292;28;20045;-78
2023/05/14 01:40:39;;;;;;;27.17;24.77;;;7.30;99.90;;;;;;5004242;28;20094;-77
2023/05/14 01:43:07;;;;;;;26.33;24.00;;;7.30;99.90;;;;;;5030279;28;20094;-77
2023/05/14 01:45:35;;;;;;;26.15;23.40;;;7.30;99.90;;;;;;5015275;28;20117;-78
2023/05/14 01:48:04;;;;;;;26.38;24.17;;;7.20;99.90;;;;;;4999409;28;20038;-78
2023/05/14 01:50:31;;;;;;;23.45;21.48;;;7.10;99.90;;;;;;5002710;28;20045;-78
2023/05/14 01:52:57;;;;;;;25.63;23.42;;;7.10;99.90;;;;;;4988050;28;20075;-77
2023/05/14 01:55:26;;;;;;;26.73;24.23;;;7.10;99.90;;;;;;4998138;28;20065;-77
2023/05/14 01:57:53;;;;;;;27.55;24.73;;;7.10;99.90;;;;;;5003088;28;20133;-77
2023/05/14 02:00:22;;;;;;;26.83;24.38;;;7.10;99.90;;;;;;5016816;28;20583;-78
2023/05/14 02:02:49;;;;;;;26.70;23.90;;;7.10;99.90;;;;;;5020624;28;20121;-77
2023/05/14 02:05:16;;;;;;;26.45;24.17;;;7.00;99.90;;;;;;5011327;28;20523;-79
2023/05/14 02:07:42;;;;;;;26.30;23.85;;;7.00;99.90;;;;;;5014136;28;20046;-77
2023/05/14 02:10:10;;;;;;;26.33;24.05;;;7.00;99.90;;;;;;4999376;28;20080;-77
2023/05/14 02:12:36;;;;;;;24.73;22.77;;;7.00;99.90;;;;;;5015485;28;20052;-78
2023/05/14 02:15:03;;;;;;;25.80;23.55;;;6.80;99.90;;;;;;5006007;28;20480;-77
2023/05/14 02:17:31;;;;;;;28.35;25.52;;;6.90;99.90;;;;;;5017285;28;20666;-77
2023/05/14 02:19:58;;;;;;;28.05;25.30;;;6.90;99.90;;;;;;4999948;28;20652;-78
2023/05/14 02:22:24;;;;;;;26.67;24.38;;;6.80;99.90;;;;;;4996275;28;20042;-79
2023/05/14 02:24:51;;;;;;;27.45;24.83;;;6.90;99.90;;;;;;5000198;28;20045;-77
2023/05/14 02:27:18;;;;;;;27.42;24.77;;;6.90;99.90;;;;;;5016925;28;20065;-77
2023/05/14 02:29:45;;;;;;;26.42;24.05;;;6.90;99.90;;;;;;5003664;28;20129;-78
2023/05/14 02:32:12;;;;;;;27.73;25.20;;;6.80;99.90;;;;;;4995535;28;20725;-78
2023/05/14 02:34:39;;;;;;;26.80;24.50;;;6.80;99.90;;;;;;4993066;28;20076;-77
2023/05/14 02:37:06;;;;;;;26.98;24.80;;;6.90;99.90;;;;;;5016994;28;20042;-77
2023/05/14 02:39:32;;;;;;;30.10;27.27;;;6.80;99.90;;;;;;4992285;28;20041;-78
2023/05/14 02:41:59;;;;;;;29.10;26.20;;;6.80;99.90;;;;;;5003841;28;20067;-77
2023/05/14 02:44:26;;;;;;;29.73;26.95;;;6.70;99.90;;;;;;4997952;28;20061;-78
2023/05/14 02:46:53;;;;;;;33.17;29.70;;;6.70;99.90;;;;;;4991122;28;20061;-78
2023/05/14 02:49:20;;;;;;;31.20;27.98;;;6.80;99.90;;;;;;4983969;28;20042;-77
2023/05/14 02:51:47;;;;;;;29.95;27.15;;;6.80;99.90;;;;;;4982178;28;20045;-77
2023/05/14 02:54:15;;;;;;;31.58;28.77;;;6.90;99.90;;;;;;4977888;28;20068;-77
2023/05/14 02:56:42;;;;;;;30.63;27.80;;;6.90;99.90;;;;;;4965492;28;20053;-77
2023/05/14 02:59:08;;;;;;;30.48;27.67;;;6.80;99.90;;;;;;4976984;28;20678;-79
2023/05/14 03:01:36;;;;;;;30.33;27.63;;;6.90;99.90;;;;;;4991630;28;20743;-77
2023/05/14 03:04:06;;;;;;;31.85;28.73;;;7.00;99.90;;;;;;5020156;28;20551;-79
2023/05/14 03:06:33;;;;;;;31.85;28.55;;;7.00;99.90;;;;;;5002662;28;20048;-77
2023/05/14 03:08:59;;;;;;;31.20;28.20;;;7.10;99.90;;;;;;5002593;28;20041;-78
2023/05/14 03:11:26;;;;;;;28.60;25.88;;;7.10;99.90;;;;;;4993999;28;20764;-78
2023/05/14 03:13:53;;;;;;;30.08;27.48;;;7.00;99.90;;;;;;4985959;28;20132;-79
2023/05/14 03:16:20;;;;;;;29.85;26.98;;;7.00;99.90;;;;;;5003042;28;20058;-77
2023/05/14 03:18:46;;;;;;;29.80;27.17;;;7.00;99.90;;;;;;4965089;28;20136;-79
2023/05/14 03:21:13;;;;;;;27.98;25.52;;;6.80;99.90;;;;;;4975119;28;20662;-78
2023/05/14 03:23:40;;;;;;;26.98;24.50;;;6.70;99.90;;;;;;4994174;28;20466;-78
2023/05/14 03:26:07;;;;;;;27.42;24.83;;;6.60;99.90;;;;;;4995380;28;20044;-77
2023/05/14 03:28:33;;;;;;;28.65;26.20;;;6.40;99.90;;;;;;4998376;28;20042;-79
2023/05/14 03:31:00;;;;;;;30.58;27.67;;;6.50;99.90;;;;;;4989868;28;20052;-79
2023/05/14 03:33:30;;;;;;;30.40;27.27;;;6.60;99.90;;;;;;4998223;28;20068;-77
2023/05/14 03:35:56;;;;;;;30.55;27.60;;;6.60;99.90;;;;;;5010529;28;20121;-78
2023/05/14 03:38:23;;;;;;;31.38;28.23;;;6.60;99.90;;;;;;4992045;28;20037;-77
2023/05/14 03:40:50;;;;;;;29.08;26.38;;;6.60;99.90;;;;;;4986844;28;20790;-76
2023/05/14 03:43:16;;;;;;;27.90;25.50;;;6.50;99.90;;;;;;5018073;28;20045;-77
2023/05/14 03:45:43;;;;;;;27.55;24.70;;;6.50;99.90;;;;;;4997196;28;20041;-77
2023/05/14 03:48:10;;;;;;;29.13;26.35;;;6.40;99.90;;;;;;4996016;28;20065;-78
2023/05/14 03:50:37;;;;;;;30.63;27.80;;;6.50;99.90;;;;;;4992509;28;20042;-78
2023/05/14 03:53:05;;;;;;;32.38;29.27;;;6.50;99.90;;;;;;4998566;28;20091;-77
2023/05/14 03:55:31;;;;;;;31.05;27.85;;;6.60;99.90;;;;;;4996428;28;20158;-78
2023/05/14 03:57:58;;;;;;;31.98;29.05;;;6.60;99.90;;;;;;5002861;28;20064;-77
2023/05/14 04:00:26;;;;;;;29.88;27.13;;;6.70;99.90;;;;;;4995679;28;20065;-78
2023/05/14 04:02:53;;;;;;;30.65;27.98;;;6.60;99.90;;;;;;5000459;28;20045;-78
2023/05/14 04:05:22;;;;;;;28.52;26.02;;;6.50;99.90;;;;;;4996500;28;20048;-77
2023/05/14 04:07:49;;;;;;;33.03;29.88;;;6.60;99.90;;;;;;5007852;28;20418;-78
2023/05/14 04:10:16;;;;;;;33.15;30.02;;;6.80;99.90;;;;;;4990274;28;20414;-78
2023/05/14 04:12:42;;;;;;;30.27;27.25;;;6.80;99.90;;;;;;5007034;28;21320;-77
2023/05/14 04:15:09;;;;;;;29.80;27.13;;;6.70;99.90;;;;;;4981568;28;20132;-77
2023/05/14 04:17:36;;;;;;;29.60;26.75;;;6.60;99.90;;;;;;4991175;28;20101;-77
2023/05/14 04:20:03;;;;;;;30.25;27.45;;;6.70;99.90;;;;;;4994013;28;20569;-78
2023/05/14 04:22:31;;;;;;;28.55;25.90;;;6.60;99.90;;;;;;5017562;28;20051;-77
2023/05/14 04:24:57;;;;;;;30.15;27.55;;;6.60;99.90;;;;;;5014867;28;20053;-78
2023/05/14 04:27:24;;;;;;;30.13;27.35;;;6.70;99.90;;;;;;4998132;28;20041;-78
2023/05/14 04:29:51;;;;;;;29.08;26.77;;;6.70;99.90;;;;;;5001556;28;20152;-76
2023/05/14 04:32:17;;;;;;;30.42;27.80;;;6.70;99.90;;;;;;4996159;28;20065;-77
2023/05/14 04:34:45;;;;;;;30.15;27.65;;;6.80;99.90;;;;;;4997356;28;20052;-79
2023/05/14 04:37:12;;;;;;;31.77;29.05;;;6.80;99.90;;;;;;5000739;28;20125;-78
2023/05/14 04:39:39;;;;;;;32.72;29.83;;;6.90;99.90;;;;;;4988090;28;20479;-78
2023/05/14 04:42:06;;;;;;;31.50;28.77;;;7.00;99.90;;;;;;4999190;28;20574;-78
2023/05/14 04:44:34;;;;;;;32.28;29.33;;;7.10;99.90;;;;;;5003114;28;20878;-77
2023/05/14 04:47:01;;;;;;;31.75;28.80;;;7.20;99.90;;;;;;5004170;28;20133;-78
2023/05/14 04:49:29;;;;;;;29.77;27.17;;;7.30;99.90;;;;;;5003264;28;20037;-78
2023/05/14 04:51:55;;;;;;;29.38;26.58;;;7.30;99.90;;;;;;5005174;28;20550;-77
2023/05/14 04:54:22;;;;;;;29.55;26.80;;;7.40;99.90;;;;;;5020611;28;20053;-78
2023/05/14 04:56:49;;;;;;;29.50;27.00;;;7.50;99.90;;;;;;5021030;28;20099;-77
2023/05/14 04:59:16;;;;;;;29.23;26.42;;;7.60;99.90;;;;;;5019581;28;20666;-78
2023/05/14 05:01:43;;;;;;;30.80;27.90;;;7.70;99.90;;;;;;5003849;28;20691;-77
2023/05/14 05:04:11;;;;;;;29.00;26.33;;;7.90;99.90;;;;;;5000029;28;20066;-78
2023/05/14 05:06:38;;;;;;;25.55;23.33;;;8.10;99.90;;;;;;5030955;28;20511;-74
2023/05/14 05:09:04;;;;;;;24.15;21.95;;;8.20;99.90;;;;;;5016502;28;20072;-76
2023/05/14 05:11:31;;;;;;;21.77;19.88;;;8.50;99.90;;;;;;4992319;28;20065;-76
2023/05/14 05:13:57;;;;;;;21.63;19.48;;;9.10;99.90;;;;;;5000371;28;20069;-75
2023/05/14 05:16:24;;;;;;;22.23;20.52;;;9.50;99.90;;;;;;4998209;28;20752;-76
2023/05/14 05:18:51;;;;;;;24.13;22.15;;;9.90;99.90;;;;;;5001705;28;20045;-77
2023/05/14 05:21:18;;;;;;;25.85;24.05;;;10.20;99.90;;;;;;4993972;28;20041;-75
2023/05/14 05:23:44;;;;;;;27.20;25.20;;;10.70;99.90;;;;;;4994791;28;20532;-76
2023/05/14 05:26:11;;;;;;;28.25;26.15;;;10.80;99.90;;;;;;5014607;28;20053;-76
2023/05/14 05:28:38;;;;;;;29.05;26.95;;;10.90;99.90;;;;;;4994872;28;20564;-76
2023/05/14 05:31:04;;;;;;;28.60;26.55;;;11.10;99.90;;;;;;4992227;28;20042;-75
2023/05/14 05:33:31;;;;;;;29.23;27.20;;;11.20;99.90;;;;;;4999436;28;20438;-77
2023/05/14 05:35:58;;;;;;;29.88;27.67;;;11.30;99.90;;;;;;5004888;28;20040;-75
2023/05/14 05:38:25;;;;;;;30.90;28.50;;;11.60;99.90;;;;;;4989816;28;20053;-75
2023/05/14 05:40:51;;;;;;;30.88;28.58;;;11.70;99.90;;;;;;5013740;28;20041;-75
2023/05/14 05:43:18;;;;;;;31.52;29.02;;;11.80;99.90;;;;;;4999135;28;20322;-75
2023/05/14 05:45:45;;;;;;;31.80;29.38;;;11.80;99.90;;;;;;4994853;28;20437;-76
2023/05/14 05:48:12;;;;;;;29.58;27.58;;;12.00;99.90;;;;;;5000882;28;20115;-76
2023/05/14 05:50:39;;;;;;;28.52;26.25;;;12.00;99.90;;;;;;5016365;28;20696;-75
2023/05/14 05:53:05;;;;;;;27.60;25.58;;;12.10;99.90;;;;;;4999776;28;20465;-75
2023/05/14 05:55:32;;;;;;;27.10;25.20;;;12.40;99.90;;;;;;4998678;28;20072;-76
2023/05/14 05:57:59;;;;;;;29.25;27.25;;;12.50;99.90;;;;;;4982123;28;20045;-75
2023/05/14 06:00:26;;;;;;;28.77;26.88;;;12.70;99.90;;;;;;4993653;28;20171;-76
2023/05/14 06:02:53;;;;;;;29.30;27.30;;;13.20;99.90;;;;;;4996869;28;20046;-75
2023/05/14 06:05:19;;;;;;;27.48;25.67;;;13.60;99.90;;;;;;4997474;28;20073;-74
2023/05/14 06:07:46;;;;;;;27.65;25.85;;;13.90;99.90;;;;;;4985956;28;20407;-75
2023/05/14 06:10:13;;;;;;;27.75;25.83;;;14.00;99.90;;;;;;5017396;28;20041;-76
2023/05/14 06:12:39;;;;;;;27.40;25.73;;;14.40;99.90;;;;;;4989075;28;20871;-77
2023/05/14 06:15:07;;;;;;;27.52;25.55;;;14.80;99.90;;;;;;4998874;28;20052;-77
2023/05/14 06:17:33;;;;;;;26.80;24.95;;;14.90;99.90;;;;;;5002359;28;20038;-77
2023/05/14 06:20:00;;;;;;;28.00;26.10;;;14.90;99.90;;;;;;4997734;28;20042;-78
2023/05/14 06:22:27;;;;;;;28.27;26.48;;;14.80;99.90;;;;;;4996349;28;20781;-75
2023/05/14 06:24:53;;;;;;;28.38;26.55;;;14.90;99.90;;;;;;5023023;28;20117;-77
2023/05/14 06:27:20;;;;;;;27.88;25.98;;;14.90;99.90;;;;;;4989075;28;20529;-76
2023/05/14 06:29:47;;;;;;;28.45;26.60;;;15.00;99.90;;;;;;5025987;28;20046;-77
2023/05/14 06:32:14;;;;;;;30.15;28.17;;;15.30;99.90;;;;;;5033169;28;20037;-76
2023/05/14 06:34:42;;;;;;;32.00;29.63;;;15.00;99.90;;;;;;5015097;28;20057;-77
2023/05/14 06:37:09;;;;;;;31.65;29.65;;;15.00;99.90;;;;;;5012030;28;20065;-76
2023/05/14 06:39:37;;;;;;;31.98;29.88;;;15.10;99.90;;;;;;5016270;28;20037;-77
2023/05/14 06:42:04;;;;;;;31.63;29.80;;;15.30;99.90;;;;;;5018234;28;20038;-78
2023/05/14 06:44:31;;;;;;;32.25;30.20;;;14.90;99.90;;;;;;4999415;28;20033;-77
2023/05/14 06:46:58;;;;;;;32.60;30.50;;;14.90;99.90;;;;;;4977950;28;20061;-76
2023/05/14 06:49:24;;;;;;;34.25;32.15;;;14.90;99.90;;;;;;4964222;28;20049;-77
2023/05/14 06:51:51;;;;;;;34.17;31.88;;;15.10;99.90;;;;;;4976281;28;20038;-78
2023/05/14 06:54:19;;;;;;;32.05;30.10;;;15.40;99.90;;;;;;4982724;28;20042;-77
2023/05/14 06:56:46;;;;;;;37.33;34.42;;;15.40;99.90;;;;;;5017624;28;20049;-77
2023/05/14 06:59:12;;;;;;;32.72;30.73;;;15.50;99.90;;;;;;4996179;28;20713;-77
2023/05/14 07:01:39;;;;;;;33.35;31.05;;;15.30;99.90;;;;;;5018642;28;20049;-76
2023/05/14 07:04:06;;;;;;;32.33;30.27;;;15.40;99.90;;;;;;4996616;28;20524;-76
2023/05/14 07:06:33;;;;;;;31.67;29.48;;;15.60;99.90;;;;;;4998907;28;20038;-76
2023/05/14 07:09:01;;;;;;;31.95;29.98;;;15.70;99.90;;;;;;4995747;28;20133;-75
2023/05/14 07:11:28;;;;;;;32.45;30.23;;;15.90;99.90;;;;;;4996746;28;20041;-76
2023/05/14 07:13:54;;;;;;;31.23;29.33;;;15.50;99.90;;;;;;4998046;28;20037;-77
2023/05/14 07:16:21;;;;;;;34.20;32.05;;;15.70;99.90;;;;;;4990184;28;20050;-77
2023/05/14 07:18:48;;;;;;;32.03;29.85;;;15.70;99.90;;;;;;4981286;28;20048;-76
2023/05/14 07:21:15;;;;;;;31.30;29.40;;;15.30;99.90;;;;;;4997937;28;20034;-76
2023/05/14 07:23:41;;;;;;;31.33;29.35;;;15.50;99.90;;;;;;4972989;28;20072;-75
2023/05/14 07:26:08;;;;;;;31.08;29.13;;;15.70;99.90;;;;;;4993177;28;20045;-77
2023/05/14 07:28:35;;;;;;;32.28;30.27;;;15.70;99.90;;;;;;4982654;28;20049;-75
2023/05/14 07:31:07;;;;;;;32.15;30.15;;;15.60;99.90;;;;;;4997395;28;20038;-76
2023/05/14 07:33:37;;;;;;;32.28;30.38;;;15.50;99.90;;;;;;4998240;28;20066;-77
2023/05/14 07:36:04;;;;;;;32.90;30.80;;;15.40;99.90;;;;;;5000079;28;20424;-74
2023/05/14 07:38:31;;;;;;;33.10;31.00;;;15.50;99.90;;;;;;4994713;28;20033;-74
2023/05/14 07:40:58;;;;;;;32.88;30.88;;;15.80;99.90;;;;;;4996077;28;20661;-75
2023/05/14 07:43:25;;;;;;;36.00;33.80;;;16.00;99.90;;;;;;4996532;28;20049;-75
2023/05/14 07:45:52;;;;;;;33.38;31.38;;;16.10;99.90;;;;;;5000127;28;20061;-75
2023/05/14 07:48:19;;;;;;;30.13;28.38;;;16.30;99.90;;;;;;5019239;28;20053;-76
2023/05/14 07:50:46;;;;;;;32.70;30.70;;;16.90;99.90;;;;;;4989670;28;20064;-76
2023/05/14 07:53:13;;;;;;;32.88;30.63;;;17.30;99.90;;;;;;4990581;28;20056;-75
2023/05/14 07:55:40;;;;;;;34.33;32.33;;;17.70;99.90;;;;;;4981846;28;23515;-76
2023/05/14 07:58:07;;;;;;;33.58;31.58;;;18.00;99.90;;;;;;4997928;28;20068;-75
2023/05/14 08:00:34;;;;;;;33.20;31.30;;;18.20;99.90;;;;;;4995182;28;20048;-75
2023/05/14 08:03:01;;;;;;;32.70;30.70;;;18.70;99.90;;;;;;4997417;28;20111;-77
2023/05/14 08:05:28;;;;;;;33.47;31.58;;;18.80;99.90;;;;;;4987794;28;20700;-78
2023/05/14 08:07:54;;;;;;;35.75;33.67;;;18.80;99.90;;;;;;5022117;28;20100;-75
2023/05/14 08:10:21;;;;;;;36.67;34.47;;;18.40;99.90;;;;;;4989053;28;20570;-77
2023/05/14 08:12:49;;;;;;;35.40;33.25;;;18.00;99.90;;;;;;5017005;28;20037;-74
2023/05/14 08:15:16;;;;;;;33.03;31.13;;;18.40;99.90;;;;;;5016602;28;20053;-75
2023/05/14 08:17:43;;;;;;;33.72;31.75;;;18.30;99.90;;;;;;4979157;28;20462;-75
2023/05/14 08:20:10;;;;;;;37.33;35.17;;;18.10;99.90;;;;;;4979752;28;20385;-74
2023/05/14 08:22:37;;;;;;;35.63;33.60;;;17.70;99.90;;;;;;4994041;28;20073;-74
2023/05/14 08:25:05;;;;;;;36.30;34.17;;;17.90;99.90;;;;;;4998877;28;20050;-76
2023/05/14 08:27:31;;;;;;;35.58;33.47;;;18.00;99.90;;;;;;4975948;28;20056;-76
2023/05/14 08:29:58;;;;;;;35.13;33.10;;;18.70;99.90;;;;;;4986904;28;20076;-76
2023/05/14 08:32:25;;;;;;;34.72;32.92;;;18.30;99.90;;;;;;4990827;28;20038;-76
2023/05/14 08:34:51;;;;;;;34.85;32.97;;;18.40;99.90;;;;;;5010020;28;20040;-76
2023/05/14 08:37:18;;;;;;;36.85;34.72;;;18.40;99.90;;;;;;4998762;28;20042;-76
2023/05/14 08:39:45;;;;;;;37.03;35.03;;;18.30;99.90;;;;;;4997196;28;20412;-79
2023/05/14 08:42:14;;;;;;;34.53;32.72;;;18.20;99.90;;;;;;4999373;28;20069;-75
2023/05/14 08:44:52;;;;;;;34.90;33.00;;;18.20;99.90;;;;;;5015105;28;20128;-76
2023/05/14 08:47:22;;;;;;;34.63;32.83;;;18.20;99.90;;;;;;4996638;28;20046;-75
2023/05/14 08:50:03;;;;;;;32.63;30.73;;;18.90;99.90;;;;;;5006834;28;20425;-74
2023/05/14 08:52:30;;;;;;;34.50;32.70;;;18.40;99.90;;;;;;4979701;28;20041;-77
2023/05/14 08:55:00;;;;;;;34.65;32.78;;;18.60;99.90;;;;;;5002071;28;20080;-75
2023/05/14 08:57:29;;;;;;;35.75;33.85;;;18.80;99.90;;;;;;4983487;28;20599;-78
2023/05/14 08:59:56;;;;;;;32.67;30.88;;;18.70;99.90;;;;;;4979880;28;20657;-77
2023/05/14 09:02:28;;;;;;;36.17;34.28;;;18.50;99.90;;;;;;4995148;28;20045;-74
2023/05/14 09:04:58;;;;;;;33.75;31.95;;;18.60;99.90;;;;;;5002801;28;20049;-77
2023/05/14 09:07:26;;;;;;;35.20;33.20;;;19.20;99.90;;;;;;4996925;28;20083;-75
2023/05/14 09:09:53;;;;;;;31.23;29.52;;;19.50;99.90;;;;;;4997921;28;20045;-75
2023/05/14 09:12:21;;;;;;;29.00;27.40;;;19.60;99.90;;;;;;5001454;28;20051;-74
2023/05/14 09:14:48;;;;;;;30.38;28.58;;;19.10;99.90;;;;;;5014180;28;20050;-77
2023/05/14 09:17:16;;;;;;;30.27;28.58;;;18.00;99.90;;;;;;4987933;28;20030;-76
2023/05/14 09:19:47;;;;;;;37.03;35.03;;;17.70;99.90;;;;;;4982128;28;20045;-77
2023/05/14 09:22:16;;;;;;;33.03;31.13;;;17.90;99.90;;;;;;4998873;28;20435;-74
2023/05/14 09:24:44;;;;;;;34.97;33.05;;;18.30;99.90;;;;;;4999615;28;20069;-76
2023/05/14 09:27:20;;;;;;;33.72;31.90;;;18.50;99.90;;;;;;5026039;28;20055;-74
2023/05/14 09:29:47;;;;;;;41.42;39.15;;;18.80;99.90;;;;;;5005903;28;20100;-76
2023/05/14 09:32:14;;;;;;;37.13;35.03;;;18.60;99.90;;;;;;4990967;28;20090;-75
2023/05/14 09:34:41;;;;;;;33.33;31.38;;;18.60;99.90;;;;;;5003601;28;20092;-74
2023/05/14 09:37:08;;;;;;;31.13;29.48;;;18.90;99.90;;;;;;4997562;28;20183;-77
2023/05/14 09:39:36;;;;;;;32.47;30.58;;;19.00;99.90;;;;;;4978192;28;20045;-75
2023/05/14 09:42:03;;;;;;;32.20;30.20;;;18.90;99.90;;;;;;4995627;28;20412;-77
2023/05/14 09:44:30;;;;;;;27.58;26.00;;;18.60;99.90;;;;;;4996342;28;20137;-75
2023/05/14 09:46:57;;;;;;;31.02;29.30;;;18.20;99.90;;;;;;5013492;28;20042;-73
2023/05/14 09:49:24;;;;;;;31.25;29.55;;;18.00;99.90;;;;;;4999838;28;20646;-76
2023/05/14 09:51:51;;;;;;;30.48;28.88;;;18.20;99.90;;;;;;4982038;28;20606;-76
2023/05/14 09:54:18;;;;;;;36.13;34.03;;;18.00;99.90;;;;;;4999024;28;20698;-75
2023/05/14 09:56:44;;;;;;;29.70;28.00;;;18.00;99.90;;;;;;4995679;28;20041;-75
2023/05/14 09:59:11;;;;;;;29.23;27.63;;;18.10;99.90;;;;;;4983453;28;20042;-77
2023/05/14 10:01:41;;;;;;;30.42;28.70;;;18.10;99.90;;;;;;4993996;28;20112;-74
2023/05/14 10:04:09;;;;;;;33.65;31.88;;;17.90;99.90;;;;;;5002834;28;20081;-73
2023/05/14 10:06:38;;;;;;;38.95;36.95;;;18.10;99.90;;;;;;4996239;28;20144;-74
2023/05/14 10:09:10;;;;;;;30.42;28.73;;;18.60;99.90;;;;;;4998574;28;20081;-74
2023/05/14 10:11:41;;;;;;;32.25;30.35;;;18.90;99.90;;;;;;4994360;28;20046;-76
2023/05/14 10:14:17;;;;;;;33.05;31.17;;;19.40;99.90;;;;;;4997745;28;20398;-76
2023/05/14 10:16:49;;;;;;;30.27;28.58;;;19.40;99.90;;;;;;4994221;28;20042;-76
2023/05/14 10:19:19;;;;;;;30.35;28.55;;;19.70;99.90;;;;;;4998486;28;20371;-77
2023/05/14 10:21:58;;;;;;;36.28;34.25;;;19.60;99.90;;;;;;4997031;28;20072;-76
2023/05/14 10:24:28;;;;;;;34.67;32.75;;;19.40;99.90;;;;;;4999947;28;20100;-77
2023/05/14 10:26:55;;;;;;;35.47;33.47;;;19.30;99.90;;;;;;4997468;28;20133;-75
2023/05/14 10:29:36;;;;;;;32.42;30.73;;;19.40;99.90;;;;;;4995931;28;20133;-77
2023/05/14 10:32:08;;;;;;;35.85;33.85;;;19.70;99.90;;;;;;5010308;28;20077;-75
2023/05/14 10:34:45;;;;;;;32.20;30.50;;;19.70;99.90;;;;;;4993319;28;20073;-78
2023/05/14 10:37:14;;;;;;;31.77;30.08;;;20.00;99.90;;;;;;4994054;28;20195;-77
2023/05/14 10:39:52;;;;;;;32.90;31.10;;;18.90;99.90;;;;;;4996661;28;20668;-76
2023/05/14 10:42:31;;;;;;;31.85;30.15;;;18.80;99.90;;;;;;5004282;28;20502;-76
2023/05/14 10:45:14;;;;;;;31.25;29.65;;;18.90;99.90;;;;;;5004251;28;20092;-75
2023/05/14 10:47:43;;;;;;;32.13;30.15;;;18.80;99.90;;;;;;5007980;28;20144;-76
2023/05/14 10:50:11;;;;;;;32.97;31.15;;;19.00;99.90;;;;;;4996387;28;20053;-76
2023/05/14 10:52:41;;;;;;;33.95;32.25;;;19.00;99.90;;;;;;5013366;28;20511;-74
2023/05/14 10:55:11;;;;;;;30.20;28.60;;;18.90;99.90;;;;;;4998314;28;20049;-77
2023/05/14 10:57:40;;;;;;;30.13;28.42;;;18.40;99.90;;;;;;4995700;28;20041;-74
2023/05/14 11:00:08;;;;;;;30.00;28.17;;;18.30;99.90;;;;;;4999878;28;20069;-77
2023/05/14 11:02:37;;;;;;;30.92;29.27;;;18.70;99.90;;;;;;4998013;28;20073;-74
2023/05/14 11:05:15;;;;;;;31.48;29.67;;;18.60;99.90;;;;;;5002940;28;20045;-75
2023/05/14 11:07:56;;;;;;;33.65;31.63;;;18.90;99.90;;;;;;5000748;28;20045;-76
2023/05/14 11:10:28;;;;;;;32.15;30.40;;;18.90;99.90;;;;;;5017177;28;20060;-76
2023/05/14 11:12:56;;;;;;;32.83;30.95;;;18.30;99.90;;;;;;5007352;28;20064;-76
2023/05/14 11:15:27;;;;;;;33.08;31.00;;;18.70;99.90;;;;;;4977686;28;20602;-76
2023/05/14 11:17:54;;;;;;;33.45;31.65;;;19.00;99.90;;;;;;4996622;28;20128;-75
2023/05/14 11:20:20;;;;;;;33.22;31.42;;;18.60;99.90;;;;;;5008427;28;20073;-75
2023/05/14 11:22:52;;;;;;;34.67;32.72;;;18.70;99.90;;;;;;4996423;28;20145;-76
2023/05/14 11:25:20;;;;;;;43.17;40.88;;;18.60;99.90;;;;;;5003582;28;20160;-75
2023/05/14 11:27:48;;;;;;;41.22;39.13;;;18.70;99.90;;;;;;4987847;28;20060;-75
2023/05/14 11:30:17;;;;;;;39.25;37.15;;;19.00;99.90;;;;;;5016398;28;20041;-75
2023/05/14 11:32:46;;;;;;;43.15;40.53;;;19.70;99.90;;;;;;4996694;28;20034;-75
2023/05/14 11:35:14;;;;;;;38.83;36.72;;;20.00;99.90;;;;;;4998671;28;20124;-76
2023/05/14 11:37:41;;;;;;;35.72;33.83;;;20.50;99.90;;;;;;4995515;28;20733;-76
2023/05/14 11:40:15;;;;;;;41.42;39.33;;;20.90;99.90;;;;;;5016633;28;20630;-76
2023/05/14 11:42:42;;;;;;;34.07;32.17;;;21.10;99.90;;;;;;4995872;28;20140;-77
2023/05/14 11:45:13;;;;;;;33.00;31.00;;;20.70;99.90;;;;;;5015159;28;20797;-76
2023/05/14 11:47:41;;;;;;;34.72;32.92;;;20.10;99.90;;;;;;4979010;28;20080;-77
2023/05/14 11:50:09;;;;;;;35.67;33.88;;;19.80;99.90;;;;;;5000213;28;20077;-75
2023/05/14 11:52:40;;;;;;;45.03;42.83;;;19.80;99.90;;;;;;4981302;28;20049;-76
2023/05/14 11:55:11;;;;;;;41.78;39.15;;;19.70;99.90;;;;;;4998978;28;20099;-75
2023/05/14 11:57:39;;;;;;;42.25;39.97;;;19.60;99.90;;;;;;4975599;28;20137;-74
2023/05/14 12:00:08;;;;;;;36.60;34.58;;;19.90;99.90;;;;;;4974988;28;20034;-74
2023/05/14 12:02:35;;;;;;;33.58;31.80;;;20.30;99.90;;;;;;5002173;28;20042;-76
2023/05/14 12:05:06;;;;;;;33.80;32.00;;;20.40;99.90;;;;;;4994389;28;20037;-73
2023/05/14 12:07:32;;;;;;;33.90;32.00;;;20.40;99.90;;;;;;4992303;28;20049;-75
2023/05/14 12:10:02;;;;;;;35.15;33.08;;;20.10;99.90;;;;;;4987672;28;20945;-75
2023/05/14 12:12:35;;;;;;;34.30;32.30;;;19.70;99.90;;;;;;4986890;28;20136;-75
2023/05/14 12:15:09;;;;;;;34.63;32.67;;;19.60;99.90;;;;;;5003249;28;20119;-75
2023/05/14 12:17:37;;;;;;;34.17;32.47;;;19.70;99.90;;;;;;5007698;28;20045;-75
2023/05/14 12:20:09;;;;;;;35.58;33.67;;;20.10;99.90;;;;;;4992621;28;20053;-75
2023/05/14 12:22:36;;;;;;;40.15;37.95;;;20.50;99.90;;;;;;5010403;28;20133;-76
2023/05/14 12:25:03;;;;;;;35.58;33.65;;;20.70;99.90;;;;;;4990301;28;20041;-76
2023/05/14 12:27:30;;;;;;;41.72;39.45;;;20.60;99.90;;;;;;4999185;28;20289;-73
2023/05/14 12:29:58;;;;;;;34.67;32.67;;;19.80;99.90;;;;;;4989675;28;20041;-75
2023/05/14 12:32:41;;;;;;;36.03;34.03;;;19.90;99.90;;;;;;4975166;28;20051;-74
2023/05/14 12:35:08;;;;;;;37.45;35.45;;;20.20;99.90;;;;;;4976041;28;20129;-76